Time;durP1;ratioP1;P1;durP2;ratioP2;P2;SDS_P1;SDS_P2;PMS_P1;PMS_P2;Temp;Humidity;BMP_temperature;BMP_pressure;BME280_temperature;BME280_humidity;BME280_pressure;Samples;Min_cycle;Max_cycle;Signal;HPM_P1;HPM_P2
2021/01/02 00:01:49;;;;;;;10.85;6.30;;;1.70;61.40;;;;;;4944387;28;20242;-75
2021/01/02 00:04:36;;;;;;;11.30;7.05;;;1.70;99.90;;;;;;4943247;28;20221;-76
2021/01/02 00:07:34;;;;;;;10.35;7.40;;;1.70;99.90;;;;;;4952096;28;20244;-75
2021/01/02 00:10:04;;;;;;;9.43;7.20;;;1.70;99.90;;;;;;4924706;28;20245;-77
2021/01/02 00:12:55;;;;;;;11.43;7.57;;;1.70;99.90;;;;;;4964577;28;20225;-77
2021/01/02 00:15:27;;;;;;;11.90;7.85;;;1.70;99.90;;;;;;4944621;28;20223;-75
2021/01/02 00:18:15;;;;;;;10.50;6.82;;;1.70;99.90;;;;;;4951359;28;20690;-73
2021/01/02 00:21:05;;;;;;;11.63;7.35;;;1.70;99.90;;;;;;4951955;28;20223;-78
2021/01/02 00:24:26;;;;;;;14.77;9.88;;;1.70;99.90;;;;;;4948648;28;20225;-75
2021/01/02 00:27:05;;;;;;;10.15;7.72;;;1.70;99.90;;;;;;4867484;29;20790;-77
2021/01/02 00:30:15;;;;;;;10.90;8.80;;;1.80;99.90;;;;;;4961031;28;20216;-75
2021/01/02 00:32:58;;;;;;;13.70;7.60;;;1.80;99.90;;;;;;4940577;28;20235;-74
2021/01/02 00:35:27;;;;;;;11.27;7.93;;;1.80;99.90;;;;;;4943858;28;20210;-75
2021/01/02 00:38:04;;;;;;;13.25;7.70;;;1.90;99.90;;;;;;4945682;28;20306;-72
2021/01/02 00:40:32;;;;;;;9.18;6.70;;;2.00;99.90;;;;;;4944107;28;20215;-75
2021/01/02 00:42:59;;;;;;;11.50;8.63;;;2.10;99.90;;;;;;4943015;28;20785;-74
2021/01/02 00:45:29;;;;;;;12.88;8.27;;;2.20;99.90;;;;;;4946330;28;20245;-73
2021/01/02 00:47:56;;;;;;;11.48;7.88;;;2.20;40.50;;;;;;4947445;28;20578;-74
2021/01/02 00:50:25;;;;;;;13.73;8.60;;;2.20;93.60;;;;;;4942025;28;20284;-74
2021/01/02 00:53:14;;;;;;;11.95;9.05;;;2.30;86.50;;;;;;4948560;28;20241;-74
2021/01/02 00:56:06;;;;;;;12.63;8.45;;;2.30;40.70;;;;;;4956444;28;20266;-78
2021/01/02 00:59:01;;;;;;;14.55;9.10;;;2.30;1.00;;;;;;4947372;28;20280;-75
2021/01/02 01:01:36;;;;;;;15.07;9.02;;;2.40;1.00;;;;;;4970247;28;20238;-77
2021/01/02 01:04:28;;;;;;;12.80;8.65;;;2.40;27.50;;;;;;4948455;28;20663;-78
2021/01/02 01:06:56;;;;;;;10.65;6.57;;;2.50;26.80;;;;;;4959102;28;20308;-76
2021/01/02 01:09:24;;;;;;;11.80;8.15;;;2.50;67.10;;;;;;4948643;28;20894;-75
2021/01/02 01:11:54;;;;;;;12.63;8.70;;;2.60;1.00;;;;;;4949624;28;20249;-77
2021/01/02 01:14:22;;;;;;;10.45;9.07;;;2.60;1.00;;;;;;4946599;28;20288;-76
2021/01/02 01:16:55;;;;;;;13.77;8.75;;;2.60;1.00;;;;;;4947419;28;20424;-74
2021/01/02 01:19:28;;;;;;;12.85;8.95;;;2.70;1.00;;;;;;4953846;28;20227;-76
2021/01/02 01:21:58;;;;;;;10.93;8.38;;;2.70;1.00;;;;;;4947532;28;20240;-75
2021/01/02 01:24:42;;;;;;;16.42;8.80;;;2.70;1.00;;;;;;4949762;28;20212;-75
2021/01/02 01:27:20;;;;;;;12.07;8.38;;;2.70;1.00;;;;;;4940197;28;20645;-74
2021/01/02 01:29:58;;;;;;;14.38;9.65;;;2.70;1.00;;;;;;4945219;28;20233;-78
2021/01/02 01:32:27;;;;;;;12.18;8.88;;;2.70;1.00;;;;;;4947981;28;20332;-74
2021/01/02 01:34:59;;;;;;;14.63;9.68;;;2.70;1.00;;;;;;4946925;28;20212;-75
2021/01/02 01:37:29;;;;;;;13.65;9.40;;;2.70;1.00;;;;;;4944095;28;20200;-76
2021/01/02 01:39:58;;;;;;;13.40;9.85;;;2.80;1.00;;;;;;4963103;28;20345;-75
2021/01/02 01:42:40;;;;;;;15.10;9.57;;;2.90;1.00;;;;;;4947779;28;20238;-75
2021/01/02 01:45:23;;;;;;;14.23;10.35;;;2.90;1.00;;;;;;4945803;28;20689;-75
2021/01/02 01:48:04;;;;;;;12.35;9.85;;;2.80;1.00;;;;;;4949168;28;20646;-74
2021/01/02 01:50:46;;;;;;;11.90;8.32;;;2.80;1.00;;;;;;4947212;28;20584;-74
2021/01/02 01:53:43;;;;;;;11.55;8.52;;;2.60;1.00;;;;;;4944147;28;20239;-75
2021/01/02 01:56:17;;;;;;;11.65;8.55;;;2.60;99.90;;;;;;4944696;28;20206;-74
2021/01/02 01:59:19;;;;;;;11.25;7.50;;;2.40;99.90;;;;;;4945181;28;20587;-74
2021/01/02 02:01:47;;;;;;;11.77;7.60;;;2.40;99.90;;;;;;4960071;28;20290;-76
2021/01/02 02:04:57;;;;;;;11.70;8.15;;;2.50;99.90;;;;;;4952711;28;20226;-75
2021/01/02 02:07:40;;;;;;;13.50;8.45;;;2.60;99.90;;;;;;4956392;28;20320;-73
2021/01/02 02:10:08;;;;;;;14.95;8.93;;;2.60;99.90;;;;;;4943382;28;20413;-77
2021/01/02 02:12:50;;;;;;;11.25;8.70;;;2.70;99.90;;;;;;4948154;28;20237;-75
2021/01/02 02:15:20;;;;;;;10.50;7.95;;;2.70;99.90;;;;;;4962304;28;20218;-72
2021/01/02 02:17:52;;;;;;;13.52;9.80;;;2.70;27.00;;;;;;4954155;28;20723;-74
2021/01/02 02:20:22;;;;;;;13.10;9.00;;;2.80;18.80;;;;;;4948951;28;20218;-75
2021/01/02 02:23:02;;;;;;;10.38;8.07;;;2.80;1.00;;;;;;4952714;28;20235;-75
2021/01/02 02:25:47;;;;;;;13.25;8.25;;;2.80;1.00;;;;;;4955813;28;20233;-75
2021/01/02 02:28:52;;;;;;;13.07;9.10;;;2.80;1.00;;;;;;4951124;28;20214;-76
2021/01/02 02:31:23;;;;;;;12.77;8.75;;;2.80;1.00;;;;;;4953800;28;20257;-75
2021/01/02 02:33:56;;;;;;;13.80;9.00;;;2.90;1.00;;;;;;4956970;28;20220;-77
2021/01/02 02:36:25;;;;;;;13.60;9.35;;;2.90;1.00;;;;;;4949748;28;20691;-78
2021/01/02 02:38:53;;;;;;;11.95;8.82;;;2.90;1.00;;;;;;4971970;28;20209;-74
2021/01/02 02:41:24;;;;;;;12.80;9.20;;;2.90;1.00;;;;;;4943881;28;20218;-74
2021/01/02 02:43:54;;;;;;;14.60;10.07;;;3.00;1.00;;;;;;4965260;28;20255;-75
2021/01/02 02:46:22;;;;;;;13.55;9.77;;;2.90;1.00;;;;;;4952960;28;20233;-76
2021/01/02 02:48:55;;;;;;;13.70;10.18;;;3.00;1.00;;;;;;4955427;28;20237;-75
2021/01/02 02:51:24;;;;;;;13.00;9.60;;;3.00;1.00;;;;;;4950666;28;20242;-78
2021/01/02 02:53:52;;;;;;;10.75;8.38;;;3.00;1.00;;;;;;4948822;28;20219;-75
2021/01/02 02:56:19;;;;;;;12.82;9.40;;;3.00;1.00;;;;;;4952070;29;20242;-75
2021/01/02 02:58:46;;;;;;;12.88;9.10;;;3.00;99.90;;;;;;4946329;28;20918;-73
2021/01/02 03:01:14;;;;;;;13.10;10.60;;;2.90;99.90;;;;;;4950021;28;20229;-74
2021/01/02 03:03:41;;;;;;;13.57;8.77;;;2.90;1.00;;;;;;4955136;28;20225;-74
2021/01/02 03:06:09;;;;;;;12.15;8.85;;;3.00;1.00;;;;;;4953658;28;20699;-75
2021/01/02 03:08:36;;;;;;;10.80;8.50;;;3.00;1.00;;;;;;4946686;28;20624;-77
2021/01/02 03:11:04;;;;;;;14.90;9.13;;;3.00;1.00;;;;;;4949416;28;20778;-74
2021/01/02 03:13:41;;;;;;;12.07;8.65;;;3.10;99.90;;;;;;4955529;28;20591;-73
2021/01/02 03:16:08;;;;;;;13.70;9.77;;;3.00;99.90;;;;;;4964222;28;20219;-77
2021/01/02 03:18:36;;;;;;;12.63;9.80;;;3.10;1.00;;;;;;4965724;28;20229;-76
2021/01/02 03:21:03;;;;;;;12.63;9.30;;;3.10;99.90;;;;;;4951481;28;20678;-77
2021/01/02 03:23:30;;;;;;;17.17;9.20;;;3.00;99.90;;;;;;4952041;28;20283;-73
2021/01/02 03:26:04;;;;;;;12.95;8.68;;;3.10;99.90;;;;;;4953004;28;20229;-76
2021/01/02 03:28:31;;;;;;;14.40;8.90;;;3.00;1.00;;;;;;4952549;28;20333;-76
2021/01/02 03:30:58;;;;;;;11.50;8.80;;;3.10;99.90;;;;;;4963585;28;20210;-73
2021/01/02 03:33:25;;;;;;;13.35;9.07;;;3.10;99.90;;;;;;4954433;28;20753;-74
2021/01/02 03:35:59;;;;;;;14.85;9.43;;;3.10;1.00;;;;;;4952995;28;20561;-74
2021/01/02 03:38:31;;;;;;;14.90;10.65;;;3.10;99.90;;;;;;4955458;28;20230;-74
2021/01/02 03:40:58;;;;;;;10.68;8.48;;;3.10;1.00;;;;;;4947847;28;20207;-74
2021/01/02 03:43:26;;;;;;;15.50;10.55;;;3.10;99.90;;;;;;4966135;28;20356;-73
2021/01/02 03:45:53;;;;;;;16.92;10.93;;;3.10;99.90;;;;;;4954813;28;20215;-74
2021/01/02 03:48:20;;;;;;;39.10;20.95;;;3.10;99.90;;;;;;4959490;28;20683;-73
2021/01/02 03:50:48;;;;;;;41.00;22.75;;;3.10;99.90;;;;;;4955652;28;20219;-74
2021/01/02 03:53:16;;;;;;;23.98;14.63;;;3.10;99.90;;;;;;4948959;28;20284;-72
2021/01/02 03:55:43;;;;;;;21.60;12.70;;;3.10;1.00;;;;;;4946432;28;20661;-73
2021/01/02 03:58:10;;;;;;;16.95;11.70;;;3.10;99.90;;;;;;4946749;28;20268;-76
2021/01/02 04:00:39;;;;;;;19.60;10.98;;;3.10;99.90;;;;;;4954755;28;20229;-74
2021/01/02 04:03:06;;;;;;;17.95;10.48;;;3.00;1.00;;;;;;4948123;28;20242;-73
2021/01/02 04:05:34;;;;;;;17.13;10.73;;;3.00;1.00;;;;;;4949785;28;20223;-74
2021/01/02 04:08:02;;;;;;;14.70;9.68;;;3.00;1.00;;;;;;4953559;28;20316;-74
2021/01/02 04:10:30;;;;;;;13.32;9.25;;;3.00;99.90;;;;;;4939248;28;20786;-76
2021/01/02 04:12:57;;;;;;;15.43;11.10;;;3.00;99.90;;;;;;4952355;28;20281;-75
2021/01/02 04:15:25;;;;;;;16.23;10.07;;;2.90;1.00;;;;;;4951349;28;20215;-76
2021/01/02 04:17:52;;;;;;;12.10;8.95;;;2.90;11.70;;;;;;4952322;28;20216;-73
2021/01/02 04:20:20;;;;;;;14.73;9.55;;;2.90;59.90;;;;;;4947996;28;20212;-74
2021/01/02 04:22:48;;;;;;;16.75;10.35;;;3.00;61.80;;;;;;4958108;28;20268;-74
2021/01/02 04:25:15;;;;;;;13.48;9.13;;;3.00;1.00;;;;;;4954744;28;20626;-71
2021/01/02 04:27:43;;;;;;;11.00;8.75;;;2.90;1.00;;;;;;4951442;28;20291;-74
2021/01/02 04:30:10;;;;;;;14.30;9.32;;;3.00;1.00;;;;;;4947069;28;20282;-75
2021/01/02 04:32:37;;;;;;;14.00;9.82;;;3.00;1.00;;;;;;4950006;28;20238;-74
2021/01/02 04:35:06;;;;;;;14.88;9.63;;;3.00;15.60;;;;;;4951791;28;20218;-74
2021/01/02 04:37:33;;;;;;;14.23;9.68;;;3.00;1.00;;;;;;4946369;28;20209;-74
2021/01/02 04:40:00;;;;;;;14.32;9.80;;;3.00;1.00;;;;;;4942237;28;20670;-74
2021/01/02 04:42:32;;;;;;;16.17;9.98;;;3.00;92.40;;;;;;4951543;28;20247;-77
2021/01/02 04:45:00;;;;;;;14.00;10.57;;;3.00;99.90;;;;;;4953910;28;20224;-74
2021/01/02 04:47:30;;;;;;;14.15;10.02;;;3.00;99.90;;;;;;4945761;28;20229;-72
2021/01/02 04:49:59;;;;;;;14.35;10.07;;;3.00;99.90;;;;;;4955723;28;20203;-75
2021/01/02 04:52:26;;;;;;;12.68;10.45;;;3.00;99.90;;;;;;4954655;28;20240;-73
2021/01/02 04:54:55;;;;;;;14.77;10.30;;;3.00;99.90;;;;;;4968224;28;20216;-75
2021/01/02 04:57:22;;;;;;;16.58;11.18;;;3.00;99.90;;;;;;4950039;28;20230;-74
2021/01/02 04:59:50;;;;;;;14.23;8.98;;;3.00;99.90;;;;;;4939894;28;20214;-72
2021/01/02 05:02:20;;;;;;;15.98;10.02;;;3.00;99.90;;;;;;4940737;28;20239;-77
2021/01/02 05:04:48;;;;;;;14.63;10.20;;;3.10;99.90;;;;;;4943297;28;21173;-77
2021/01/02 05:07:24;;;;;;;14.68;10.07;;;3.10;99.90;;;;;;4972403;28;20227;-74
2021/01/02 05:09:51;;;;;;;13.50;9.43;;;3.10;99.90;;;;;;4944254;28;20724;-74
2021/01/02 05:12:26;;;;;;;15.98;9.98;;;3.00;99.90;;;;;;4950102;28;20252;-74
2021/01/02 05:15:08;;;;;;;14.77;10.95;;;3.00;99.90;;;;;;4944863;28;20218;-74
2021/01/02 05:17:37;;;;;;;13.77;10.05;;;3.00;99.90;;;;;;4951740;28;20684;-74
2021/01/02 05:20:09;;;;;;;15.93;11.05;;;3.00;99.90;;;;;;4951569;28;20246;-73
2021/01/02 05:22:37;;;;;;;14.27;9.70;;;3.00;99.90;;;;;;4969544;28;20238;-74
2021/01/02 05:25:13;;;;;;;15.25;9.80;;;3.00;99.90;;;;;;4956286;28;20269;-74
2021/01/02 05:27:42;;;;;;;15.25;9.65;;;3.00;99.90;;;;;;4947173;28;20828;-73
2021/01/02 05:30:22;;;;;;;13.98;10.55;;;3.00;99.90;;;;;;4950950;28;20577;-77
2021/01/02 05:33:08;;;;;;;18.08;11.43;;;3.00;99.90;;;;;;4953901;28;20415;-74
2021/01/02 05:35:37;;;;;;;14.25;9.43;;;3.00;99.90;;;;;;4951638;28;20389;-77
2021/01/02 05:38:16;;;;;;;19.50;12.48;;;3.00;99.90;;;;;;4946102;28;20222;-74
2021/01/02 05:40:46;;;;;;;16.65;12.20;;;3.00;99.90;;;;;;4945037;28;20210;-74
2021/01/02 05:43:15;;;;;;;18.70;11.93;;;3.00;99.90;;;;;;4947054;28;20237;-75
2021/01/02 05:45:42;;;;;;;19.83;12.38;;;3.00;99.90;;;;;;4950427;28;20213;-75
2021/01/02 05:48:19;;;;;;;16.73;10.98;;;2.90;99.90;;;;;;4952482;28;20847;-76
2021/01/02 05:50:49;;;;;;;23.00;13.63;;;2.90;99.90;;;;;;4956478;28;20270;-75
2021/01/02 05:53:21;;;;;;;18.58;13.32;;;2.90;99.90;;;;;;4947585;28;20231;-73
2021/01/02 05:56:01;;;;;;;19.27;12.90;;;2.90;99.90;;;;;;4945058;28;20610;-73
2021/01/02 05:58:32;;;;;;;19.20;13.65;;;2.90;99.90;;;;;;4943707;28;20224;-79
2021/01/02 06:01:07;;;;;;;16.70;11.60;;;2.90;99.90;;;;;;4947819;28;20219;-74
2021/01/02 06:03:36;;;;;;;18.65;12.95;;;2.80;99.90;;;;;;4949730;28;20209;-78
2021/01/02 06:06:05;;;;;;;15.57;11.75;;;2.80;1.00;;;;;;4953276;28;20266;-75
2021/01/02 06:08:37;;;;;;;22.73;14.65;;;2.80;1.00;;;;;;4943741;28;20215;-78
2021/01/02 06:11:07;;;;;;;18.25;12.30;;;2.80;1.00;;;;;;4949685;28;20629;-76
2021/01/02 06:13:36;;;;;;;23.00;12.50;;;2.80;1.00;;;;;;4945190;28;20718;-76
2021/01/02 06:16:06;;;;;;;20.05;12.68;;;2.90;1.00;;;;;;4950454;28;20226;-74
2021/01/02 06:18:35;;;;;;;17.42;11.20;;;2.70;1.00;;;;;;4947473;28;20424;-75
2021/01/02 06:21:05;;;;;;;21.42;12.90;;;2.70;1.00;;;;;;4945786;28;20209;-75
2021/01/02 06:23:35;;;;;;;25.13;14.27;;;2.70;1.00;;;;;;4951537;28;20258;-75
2021/01/02 06:26:05;;;;;;;20.40;13.25;;;2.70;1.00;;;;;;4947641;28;20207;-75
2021/01/02 06:28:33;;;;;;;20.88;13.05;;;2.70;1.00;;;;;;4948126;28;20238;-76
2021/01/02 06:31:01;;;;;;;18.23;11.68;;;2.70;1.00;;;;;;4945179;28;20222;-73
2021/01/02 06:33:29;;;;;;;20.35;12.45;;;2.70;1.00;;;;;;4946155;28;20263;-73
2021/01/02 06:35:58;;;;;;;36.83;17.98;;;2.60;1.00;;;;;;4949557;28;20612;-74
2021/01/02 06:38:26;;;;;;;19.38;12.93;;;2.60;1.00;;;;;;4942691;28;20207;-74
2021/01/02 06:40:55;;;;;;;21.35;12.27;;;2.60;1.00;;;;;;4946242;28;20296;-78
2021/01/02 06:43:24;;;;;;;17.70;11.27;;;2.60;1.00;;;;;;4950345;28;20233;-73
2021/01/02 06:46:00;;;;;;;17.48;11.07;;;2.50;1.00;;;;;;4955178;28;20207;-75
2021/01/02 06:48:41;;;;;;;18.00;10.77;;;2.50;1.00;;;;;;4947041;28;20797;-76
2021/01/02 06:51:30;;;;;;;16.30;10.38;;;2.50;1.00;;;;;;4942838;28;20218;-75
2021/01/02 06:54:02;;;;;;;20.17;11.70;;;2.50;1.00;;;;;;4948563;28;20208;-77
2021/01/02 06:56:34;;;;;;;18.45;9.80;;;2.50;1.00;;;;;;4944707;28;20814;-76
2021/01/02 06:59:03;;;;;;;20.60;11.38;;;2.50;1.00;;;;;;4943487;28;20215;-74
2021/01/02 07:01:41;;;;;;;13.98;9.50;;;2.60;1.00;;;;;;4940862;28;20240;-74
2021/01/02 07:04:09;;;;;;;18.88;10.32;;;2.60;1.00;;;;;;4943278;28;20215;-76
2021/01/02 07:06:42;;;;;;;15.20;9.50;;;2.60;1.00;;;;;;4943749;28;20252;-77
2021/01/02 07:09:28;;;;;;;16.10;9.52;;;2.60;1.00;;;;;;4950703;28;20570;-74
2021/01/02 07:12:15;;;;;;;15.63;9.55;;;2.50;1.00;;;;;;4945593;28;20235;-75
2021/01/02 07:14:44;;;;;;;18.35;13.50;;;2.40;1.00;;;;;;4943281;28;20549;-73
2021/01/02 07:17:23;;;;;;;16.65;11.30;;;2.50;1.00;;;;;;4941282;28;20220;-72
2021/01/02 07:19:50;;;;;;;15.45;10.48;;;2.60;1.00;;;;;;4935883;28;20212;-74
2021/01/02 07:22:28;;;;;;;13.75;10.18;;;2.60;1.00;;;;;;4941106;28;20234;-79
2021/01/02 07:25:01;;;;;;;15.90;9.98;;;2.60;1.00;;;;;;4940924;28;20244;-74
2021/01/02 07:27:30;;;;;;;18.63;11.15;;;2.70;1.00;;;;;;4941080;28;20234;-74
2021/01/02 07:30:06;;;;;;;20.05;10.95;;;2.60;1.00;;;;;;4936972;28;20221;-78
2021/01/02 07:32:35;;;;;;;17.10;10.35;;;2.60;1.00;;;;;;4941185;28;20244;-75
2021/01/02 07:35:04;;;;;;;15.75;9.85;;;2.70;1.00;;;;;;4936413;28;20268;-74
2021/01/02 07:37:34;;;;;;;12.77;8.70;;;2.70;1.00;;;;;;4947351;28;20387;-73
2021/01/02 07:40:05;;;;;;;14.65;9.80;;;2.80;1.00;;;;;;4945006;28;20215;-76
2021/01/02 07:42:34;;;;;;;13.95;9.10;;;2.80;1.00;;;;;;4949583;28;20293;-73
2021/01/02 07:45:08;;;;;;;33.25;17.10;;;2.80;1.00;;;;;;4950416;28;20481;-74
2021/01/02 07:47:36;;;;;;;15.23;10.20;;;2.80;1.00;;;;;;4940621;28;20236;-76
2021/01/02 07:50:11;;;;;;;13.07;9.35;;;2.80;1.00;;;;;;4947486;28;20567;-75
2021/01/02 07:52:47;;;;;;;14.30;8.98;;;2.80;1.00;;;;;;4952253;28;20313;-76
2021/01/02 07:55:16;;;;;;;16.25;10.55;;;2.80;99.90;;;;;;4940599;28;20234;-79
2021/01/02 07:57:43;;;;;;;17.20;10.77;;;2.80;1.00;;;;;;4938404;28;20210;-74
2021/01/02 08:00:11;;;;;;;13.40;8.88;;;2.70;1.00;;;;;;4945862;28;20217;-74
2021/01/02 08:02:41;;;;;;;14.70;9.10;;;2.80;1.00;;;;;;4943502;28;20903;-74
2021/01/02 08:05:10;;;;;;;12.27;8.73;;;2.80;99.90;;;;;;4947122;28;20212;-74
2021/01/02 08:07:39;;;;;;;14.70;8.85;;;2.80;99.90;;;;;;4946849;28;20226;-74
2021/01/02 08:10:10;;;;;;;13.15;9.70;;;2.70;99.90;;;;;;4945340;28;20215;-72
2021/01/02 08:12:37;;;;;;;17.30;9.93;;;2.80;1.00;;;;;;4951672;28;20232;-74
2021/01/02 08:15:05;;;;;;;16.23;12.00;;;2.80;99.90;;;;;;4949698;28;20530;-74
2021/01/02 08:17:39;;;;;;;13.88;9.63;;;2.80;1.00;;;;;;4941753;28;20457;-72
2021/01/02 08:20:08;;;;;;;17.27;10.75;;;2.90;99.90;;;;;;4947319;28;20218;-76
2021/01/02 08:22:36;;;;;;;14.38;9.48;;;2.90;99.90;;;;;;4940459;28;20236;-78
2021/01/02 08:25:09;;;;;;;14.52;9.85;;;2.90;99.90;;;;;;4948189;28;20207;-75
2021/01/02 08:27:37;;;;;;;14.02;10.18;;;3.00;99.90;;;;;;4944731;28;20236;-75
2021/01/02 08:30:09;;;;;;;16.33;10.70;;;3.00;99.90;;;;;;4945663;28;20244;-74
2021/01/02 08:32:39;;;;;;;17.00;10.75;;;3.00;99.90;;;;;;4932052;28;20232;-76
2021/01/02 08:35:17;;;;;;;14.73;10.95;;;3.00;99.90;;;;;;4936738;28;21089;-74
2021/01/02 08:37:45;;;;;;;16.42;10.50;;;3.00;99.90;;;;;;4939107;28;20213;-75
2021/01/02 08:40:15;;;;;;;17.27;11.32;;;3.00;99.90;;;;;;4955294;28;20333;-76
2021/01/02 08:42:44;;;;;;;15.57;10.23;;;3.00;99.90;;;;;;4944189;28;20231;-77
2021/01/02 08:45:13;;;;;;;12.82;9.52;;;3.00;99.90;;;;;;4944154;28;21123;-80
2021/01/02 08:47:40;;;;;;;17.40;10.35;;;3.00;99.90;;;;;;4942803;28;20715;-75
2021/01/02 08:50:10;;;;;;;25.55;13.23;;;3.00;99.90;;;;;;4946308;28;20287;-74
2021/01/02 08:52:38;;;;;;;20.15;12.18;;;3.00;99.90;;;;;;4947440;28;20239;-78
2021/01/02 08:55:10;;;;;;;16.10;10.95;;;3.00;99.90;;;;;;4941589;28;20354;-75
2021/01/02 08:57:44;;;;;;;13.90;9.80;;;3.10;99.90;;;;;;4963229;28;20624;-75
2021/01/02 09:00:14;;;;;;;20.55;10.80;;;3.10;99.90;;;;;;4939263;28;20223;-74
2021/01/02 09:02:44;;;;;;;16.70;11.32;;;3.10;99.90;;;;;;4937807;28;20248;-77
2021/01/02 09:05:12;;;;;;;13.98;10.52;;;3.00;99.90;;;;;;4937683;28;20307;-75
2021/01/02 09:07:51;;;;;;;14.13;9.68;;;3.00;99.90;;;;;;4935756;28;20229;-75
2021/01/02 09:10:23;;;;;;;13.27;8.52;;;3.00;99.90;;;;;;4947062;28;20234;-74
2021/01/02 09:13:23;;;;;;;12.70;8.88;;;2.90;99.90;;;;;;4945458;28;20227;-74
2021/01/02 09:15:56;;;;;;;13.27;9.25;;;3.00;99.90;;;;;;4882654;29;20497;-75
2021/01/02 09:18:44;;;;;;;14.25;9.65;;;3.00;99.90;;;;;;4927685;28;20802;-77
2021/01/02 09:21:19;;;;;;;14.75;10.40;;;3.10;99.90;;;;;;4935073;28;20272;-74
2021/01/02 09:23:58;;;;;;;16.00;9.38;;;3.20;99.90;;;;;;4935784;28;20937;-79
2021/01/02 09:26:32;;;;;;;14.75;9.95;;;3.20;99.90;;;;;;4937093;28;20217;-74
2021/01/02 09:29:01;;;;;;;13.63;8.80;;;3.20;99.90;;;;;;4938896;28;20228;-77
2021/01/02 09:31:34;;;;;;;14.65;9.52;;;3.20;99.90;;;;;;4944382;28;20730;-74
2021/01/02 09:34:01;;;;;;;15.05;10.40;;;3.20;99.90;;;;;;4938999;28;20333;-75
2021/01/02 09:36:28;;;;;;;15.02;10.02;;;3.30;99.90;;;;;;4942239;28;20215;-75
2021/01/02 09:38:55;;;;;;;15.63;9.43;;;3.30;1.00;;;;;;4948827;28;20223;-73
2021/01/02 09:41:25;;;;;;;14.13;9.00;;;3.10;1.00;;;;;;4948699;28;20214;-77
2021/01/02 09:43:54;;;;;;;17.77;11.07;;;3.10;63.00;;;;;;4938979;28;20216;-73
2021/01/02 09:46:23;;;;;;;16.60;10.10;;;3.10;99.90;;;;;;4941634;28;20211;-75
2021/01/02 09:48:52;;;;;;;15.73;10.18;;;3.10;99.90;;;;;;4951656;28;20234;-74
2021/01/02 09:51:22;;;;;;;15.85;10.40;;;3.10;99.90;;;;;;4944785;28;20216;-77
2021/01/02 09:53:50;;;;;;;17.48;10.60;;;3.10;99.90;;;;;;4954773;28;20617;-78
2021/01/02 09:56:17;;;;;;;15.85;10.80;;;3.20;99.90;;;;;;4945921;28;20211;-75
2021/01/02 09:58:46;;;;;;;15.13;10.52;;;3.20;99.90;;;;;;4958775;28;20208;-74
2021/01/02 10:01:15;;;;;;;14.30;9.07;;;3.30;19.40;;;;;;4941677;28;20279;-74
2021/01/02 10:03:42;;;;;;;16.83;10.60;;;3.10;1.00;;;;;;4945017;28;20215;-74
2021/01/02 10:06:09;;;;;;;16.17;10.48;;;3.20;41.30;;;;;;4943118;28;20211;-72
2021/01/02 10:08:36;;;;;;;14.25;9.65;;;3.30;1.00;;;;;;4965680;28;20236;-78
2021/01/02 10:11:04;;;;;;;15.35;9.68;;;3.30;1.00;;;;;;4956656;28;20299;-74
2021/01/02 10:13:31;;;;;;;14.93;10.20;;;3.50;1.00;;;;;;4946536;28;20673;-75
2021/01/02 10:15:59;;;;;;;12.50;9.55;;;3.60;99.90;;;;;;4943805;28;20217;-71
2021/01/02 10:18:31;;;;;;;15.70;11.07;;;3.70;1.00;;;;;;4961370;28;20467;-75
2021/01/02 10:20:58;;;;;;;16.83;10.23;;;3.70;1.00;;;;;;4953956;28;20219;-74
2021/01/02 10:23:25;;;;;;;12.25;8.85;;;3.80;17.80;;;;;;4940305;28;20236;-74
2021/01/02 10:25:53;;;;;;;12.15;8.75;;;3.90;99.90;;;;;;4941175;28;22065;-74
2021/01/02 10:28:20;;;;;;;13.85;9.75;;;3.90;1.00;;;;;;4943616;28;20238;-71
2021/01/02 10:30:47;;;;;;;12.10;8.80;;;3.90;99.90;;;;;;4936165;28;20200;-75
2021/01/02 10:33:15;;;;;;;11.82;9.38;;;3.80;99.90;;;;;;4934404;28;20229;-75
2021/01/02 10:35:42;;;;;;;11.27;8.23;;;3.90;99.90;;;;;;4939381;28;20214;-74
2021/01/02 10:38:09;;;;;;;12.32;10.13;;;3.90;99.90;;;;;;4938629;28;20473;-76
2021/01/02 10:40:36;;;;;;;12.20;10.18;;;3.90;1.00;;;;;;4937126;28;20225;-76
2021/01/02 10:43:03;;;;;;;13.40;9.20;;;3.80;1.00;;;;;;4942775;28;20778;-76
2021/01/02 10:45:30;;;;;;;13.65;8.75;;;3.80;1.00;;;;;;4942298;28;20197;-74
2021/01/02 10:47:57;;;;;;;11.20;8.02;;;3.80;1.00;;;;;;4942356;28;20446;-74
2021/01/02 10:50:25;;;;;;;10.57;8.02;;;3.80;1.00;;;;;;4934531;28;20217;-76
2021/01/02 10:52:52;;;;;;;11.02;8.48;;;3.80;1.00;;;;;;4941169;28;20237;-74
2021/01/02 10:55:20;;;;;;;9.55;7.38;;;3.80;99.90;;;;;;4940523;28;20292;-74
2021/01/02 10:57:47;;;;;;;13.77;9.20;;;3.70;1.00;;;;;;4943426;28;20217;-74
2021/01/02 11:00:15;;;;;;;14.13;8.93;;;3.70;1.00;;;;;;4946143;28;20217;-75
2021/01/02 11:02:43;;;;;;;12.38;9.18;;;3.60;99.90;;;;;;4939559;28;20233;-74
2021/01/02 11:05:11;;;;;;;11.38;8.15;;;3.80;99.90;;;;;;4943706;28;20266;-74
2021/01/02 11:07:40;;;;;;;11.93;8.90;;;3.80;99.90;;;;;;4941470;28;20245;-74
2021/01/02 11:10:09;;;;;;;10.40;7.85;;;3.80;25.20;;;;;;4941967;28;20216;-74
2021/01/02 11:12:36;;;;;;;10.13;8.50;;;3.80;1.00;;;;;;4959719;28;20232;-74
2021/01/02 11:15:06;;;;;;;13.65;8.82;;;3.80;99.90;;;;;;4944377;28;20214;-75
2021/01/02 11:17:33;;;;;;;12.68;8.82;;;3.70;99.90;;;;;;4942191;28;21129;-76
2021/01/02 11:20:00;;;;;;;14.07;9.32;;;3.80;99.90;;;;;;4940887;28;20214;-74
2021/01/02 11:22:27;;;;;;;12.55;10.15;;;3.90;99.90;;;;;;4941613;28;20238;-76
2021/01/02 11:24:55;;;;;;;15.65;10.90;;;4.00;99.90;;;;;;4942470;28;20270;-74
2021/01/02 11:27:23;;;;;;;15.68;9.85;;;4.20;65.00;;;;;;4941394;28;20238;-73
2021/01/02 11:29:50;;;;;;;11.43;9.73;;;4.30;1.00;;;;;;4941566;28;20646;-74
2021/01/02 11:32:17;;;;;;;14.13;9.70;;;4.30;99.90;;;;;;4942118;28;20248;-74
2021/01/02 11:34:44;;;;;;;13.43;9.75;;;4.30;99.90;;;;;;4941947;28;20232;-75
2021/01/02 11:37:13;;;;;;;10.38;7.88;;;4.20;99.90;;;;;;4953728;28;20244;-74
2021/01/02 11:39:40;;;;;;;10.70;8.55;;;4.30;99.90;;;;;;4938489;28;20218;-73
2021/01/02 11:42:10;;;;;;;11.48;8.68;;;4.30;99.90;;;;;;4938940;28;20299;-74
2021/01/02 11:44:37;;;;;;;10.05;6.80;;;4.40;99.90;;;;;;4938829;28;20216;-74
2021/01/02 11:47:04;;;;;;;12.55;9.10;;;4.40;99.90;;;;;;4938108;28;20216;-74
2021/01/02 11:49:34;;;;;;;11.07;8.27;;;4.50;99.90;;;;;;4946440;28;20216;-73
2021/01/02 11:52:03;;;;;;;11.05;6.80;;;4.50;1.00;;;;;;4944671;28;20264;-72
2021/01/02 11:54:32;;;;;;;16.13;9.50;;;4.50;1.00;;;;;;4944085;28;20220;-74
2021/01/02 11:56:59;;;;;;;12.80;8.70;;;4.40;1.00;;;;;;4940359;28;20245;-74
2021/01/02 11:59:28;;;;;;;11.25;8.45;;;4.30;1.00;;;;;;4942302;28;20205;-73
2021/01/02 12:01:56;;;;;;;11.63;8.10;;;4.30;34.80;;;;;;4925800;28;622094;-74
2021/01/02 12:04:26;;;;;;;13.02;8.25;;;4.20;99.90;;;;;;4944006;28;20211;-75
2021/01/02 12:06:53;;;;;;;11.73;7.15;;;4.10;99.90;;;;;;4947245;28;20211;-74
2021/01/02 12:09:22;;;;;;;12.00;9.65;;;4.20;99.90;;;;;;4947453;28;20286;-74
2021/01/02 12:11:50;;;;;;;14.32;10.38;;;4.20;99.90;;;;;;4944722;28;20233;-73
2021/01/02 12:14:19;;;;;;;12.35;8.80;;;4.30;99.90;;;;;;4947083;28;20270;-74
2021/01/02 12:16:50;;;;;;;12.93;9.00;;;4.40;99.90;;;;;;4947215;28;20294;-74
2021/01/02 12:19:19;;;;;;;11.65;8.13;;;4.40;99.90;;;;;;4949831;29;20213;-76
2021/01/02 12:21:47;;;;;;;12.77;9.05;;;4.40;99.90;;;;;;4948809;28;20739;-73
2021/01/02 12:24:14;;;;;;;11.65;8.07;;;4.40;99.90;;;;;;4949121;28;20230;-75
2021/01/02 12:26:45;;;;;;;13.38;8.77;;;4.30;99.90;;;;;;4943028;28;20215;-73
2021/01/02 12:29:13;;;;;;;14.23;9.98;;;4.30;99.90;;;;;;4948866;28;20238;-73
2021/01/02 12:31:45;;;;;;;12.40;9.63;;;4.40;99.90;;;;;;4945693;28;20474;-74
2021/01/02 12:34:14;;;;;;;11.65;9.15;;;4.40;99.90;;;;;;4947215;28;20217;-75
2021/01/02 12:36:43;;;;;;;10.30;7.50;;;4.50;99.90;;;;;;4945195;28;20212;-73
2021/01/02 12:39:14;;;;;;;13.60;8.63;;;4.50;99.90;;;;;;4946926;28;20206;-73
2021/01/02 12:41:41;;;;;;;11.95;7.93;;;4.40;99.90;;;;;;4941925;28;20238;-74
2021/01/02 12:44:09;;;;;;;12.02;8.05;;;4.30;99.90;;;;;;4946014;28;20222;-73
2021/01/02 12:46:38;;;;;;;11.23;9.00;;;4.30;99.90;;;;;;4943567;28;20222;-75
2021/01/02 12:49:06;;;;;;;10.98;8.00;;;4.30;99.90;;;;;;4941880;28;20225;-74
2021/01/02 12:51:34;;;;;;;14.93;9.45;;;4.10;1.00;;;;;;4948980;28;20250;-74
2021/01/02 12:54:03;;;;;;;13.45;8.73;;;4.10;99.90;;;;;;4944092;28;20727;-73
2021/01/02 12:56:30;;;;;;;16.65;10.35;;;4.10;99.90;;;;;;4945509;28;20219;-74
2021/01/02 12:59:00;;;;;;;14.00;10.23;;;4.10;1.00;;;;;;4943376;28;20212;-74
2021/01/02 13:01:27;;;;;;;13.38;10.13;;;4.00;99.90;;;;;;4940999;28;20239;-73
2021/01/02 13:03:55;;;;;;;15.60;9.95;;;3.90;99.90;;;;;;4939069;28;20221;-73
2021/01/02 13:06:22;;;;;;;12.80;10.60;;;3.80;99.90;;;;;;4944096;28;20215;-74
2021/01/02 13:08:50;;;;;;;11.82;9.63;;;3.70;1.00;;;;;;4942191;28;20237;-73
2021/01/02 13:11:17;;;;;;;11.23;7.95;;;3.70;74.30;;;;;;4945199;28;20224;-73